sensor_id;sensor_type;location;lat;lon;timestamp;P1;durP1;ratioP1;P2;durP2;ratioP2
49235;SDS011;35067;48.134;8.378;2023-04-06T00:00:16;7.50;;;4.72;;
49235;SDS011;35067;48.134;8.378;2023-04-06T00:01:22;9.10;;;5.22;;
49235;SDS011;35067;48.134;8.378;2023-04-06T00:02:28;7.15;;;5.00;;
49235;SDS011;35067;48.134;8.378;2023-04-06T00:03:34;10.20;;;5.82;;
49235;SDS011;35067;48.134;8.378;2023-04-06T00:04:39;10.00;;;5.53;;
49235;SDS011;35067;48.134;8.378;2023-04-06T00:05:47;9.85;;;5.20;;
49235;SDS011;35067;48.134;8.378;2023-04-06T00:06:53;7.57;;;5.47;;
49235;SDS011;35067;48.134;8.378;2023-04-06T00:07:59;8.35;;;5.20;;
49235;SDS011;35067;48.134;8.378;2023-04-06T00:09:04;10.70;;;5.68;;
49235;SDS011;35067;48.134;8.378;2023-04-06T00:10:09;8.68;;;5.30;;
49235;SDS011;35067;48.134;8.378;2023-04-06T00:11:15;7.88;;;5.68;;
49235;SDS011;35067;48.134;8.378;2023-04-06T00:12:21;7.95;;;5.18;;
49235;SDS011;35067;48.134;8.378;2023-04-06T00:13:27;7.82;;;5.43;;
49235;SDS011;35067;48.134;8.378;2023-04-06T00:14:33;7.00;;;5.07;;
49235;SDS011;35067;48.134;8.378;2023-04-06T00:15:39;10.10;;;5.68;;
49235;SDS011;35067;48.134;8.378;2023-04-06T00:16:45;8.30;;;5.25;;
49235;SDS011;35067;48.134;8.378;2023-04-06T00:17:51;7.38;;;5.03;;
49235;SDS011;35067;48.134;8.378;2023-04-06T00:18:56;9.10;;;4.97;;
49235;SDS011;35067;48.134;8.378;2023-04-06T00:20:02;9.73;;;4.93;;
49235;SDS011;35067;48.134;8.378;2023-04-06T00:21:12;8.30;;;4.68;;
49235;SDS011;35067;48.134;8.378;2023-04-06T00:22:19;11.23;;;5.35;;
49235;SDS011;35067;48.134;8.378;2023-04-06T00:23:25;9.73;;;5.05;;
49235;SDS011;35067;48.134;8.378;2023-04-06T00:24:31;8.90;;;4.93;;
49235;SDS011;35067;48.134;8.378;2023-04-06T00:25:36;8.48;;;5.13;;
49235;SDS011;35067;48.134;8.378;2023-04-06T00:26:42;8.38;;;5.10;;
49235;SDS011;35067;48.134;8.378;2023-04-06T00:27:48;9.05;;;5.40;;
49235;SDS011;35067;48.134;8.378;2023-04-06T00:28:53;8.80;;;5.28;;
49235;SDS011;35067;48.134;8.378;2023-04-06T00:29:59;11.57;;;5.78;;
49235;SDS011;35067;48.134;8.378;2023-04-06T00:31:04;8.48;;;5.60;;
49235;SDS011;35067;48.134;8.378;2023-04-06T00:32:09;8.10;;;5.10;;
49235;SDS011;35067;48.134;8.378;2023-04-06T00:33:15;6.70;;;4.95;;
49235;SDS011;35067;48.134;8.378;2023-04-06T00:34:20;7.90;;;5.32;;
49235;SDS011;35067;48.134;8.378;2023-04-06T00:35:26;9.30;;;5.15;;
49235;SDS011;35067;48.134;8.378;2023-04-06T00:36:32;9.90;;;4.97;;
49235;SDS011;35067;48.134;8.378;2023-04-06T00:37:37;9.07;;;5.50;;
49235;SDS011;35067;48.134;8.378;2023-04-06T00:38:43;7.63;;;5.35;;
49235;SDS011;35067;48.134;8.378;2023-04-06T00:39:49;7.88;;;5.40;;
49235;SDS011;35067;48.134;8.378;2023-04-06T00:40:56;8.77;;;4.72;;
49235;SDS011;35067;48.134;8.378;2023-04-06T00:42:04;8.18;;;5.03;;
49235;SDS011;35067;48.134;8.378;2023-04-06T00:43:19;8.57;;;4.93;;
49235;SDS011;35067;48.134;8.378;2023-04-06T00:44:25;8.32;;;4.97;;
49235;SDS011;35067;48.134;8.378;2023-04-06T00:45:32;6.68;;;5.10;;
49235;SDS011;35067;48.134;8.378;2023-04-06T00:46:38;9.25;;;5.85;;
49235;SDS011;35067;48.134;8.378;2023-04-06T00:47:44;6.78;;;4.82;;
49235;SDS011;35067;48.134;8.378;2023-04-06T00:48:50;8.38;;;5.05;;
49235;SDS011;35067;48.134;8.378;2023-04-06T00:49:56;8.45;;;5.07;;
49235;SDS011;35067;48.134;8.378;2023-04-06T00:51:01;8.50;;;4.97;;
49235;SDS011;35067;48.134;8.378;2023-04-06T00:52:04;8.75;;;5.95;;
49235;SDS011;35067;48.134;8.378;2023-04-06T00:53:09;9.10;;;5.28;;
49235;SDS011;35067;48.134;8.378;2023-04-06T00:54:15;8.85;;;5.20;;
49235;SDS011;35067;48.134;8.378;2023-04-06T00:55:21;6.90;;;4.88;;
49235;SDS011;35067;48.134;8.378;2023-04-06T00:56:26;10.15;;;5.63;;
49235;SDS011;35067;48.134;8.378;2023-04-06T00:57:32;7.72;;;4.97;;
49235;SDS011;35067;48.134;8.378;2023-04-06T00:58:38;8.93;;;5.80;;
49235;SDS011;35067;48.134;8.378;2023-04-06T00:59:45;7.65;;;5.00;;
49235;SDS011;35067;48.134;8.378;2023-04-06T01:00:51;4.53;;;3.95;;
49235;SDS011;35067;48.134;8.378;2023-04-06T01:01:57;10.45;;;5.75;;
49235;SDS011;35067;48.134;8.378;2023-04-06T01:03:03;8.43;;;5.03;;
49235;SDS011;35067;48.134;8.378;2023-04-06T01:04:09;7.75;;;5.00;;
49235;SDS011;35067;48.134;8.378;2023-04-06T01:05:15;9.00;;;5.38;;
49235;SDS011;35067;48.134;8.378;2023-04-06T01:06:21;7.90;;;5.10;;
49235;SDS011;35067;48.134;8.378;2023-04-06T01:07:26;7.85;;;4.90;;
49235;SDS011;35067;48.134;8.378;2023-04-06T01:08:32;7.80;;;5.30;;
49235;SDS011;35067;48.134;8.378;2023-04-06T01:09:38;8.45;;;5.35;;
49235;SDS011;35067;48.134;8.378;2023-04-06T01:10:46;9.80;;;4.95;;
49235;SDS011;35067;48.134;8.378;2023-04-06T01:11:51;6.68;;;4.68;;
49235;SDS011;35067;48.134;8.378;2023-04-06T01:12:57;9.75;;;5.20;;
49235;SDS011;35067;48.134;8.378;2023-04-06T01:14:03;9.40;;;5.13;;
49235;SDS011;35067;48.134;8.378;2023-04-06T01:15:04;7.18;;;4.78;;
49235;SDS011;35067;48.134;8.378;2023-04-06T01:16:09;9.93;;;5.95;;
49235;SDS011;35067;48.134;8.378;2023-04-06T01:17:15;7.10;;;4.45;;
49235;SDS011;35067;48.134;8.378;2023-04-06T01:18:25;8.90;;;5.35;;
49235;SDS011;35067;48.134;8.378;2023-04-06T01:19:34;9.07;;;5.32;;
49235;SDS011;35067;48.134;8.378;2023-04-06T01:20:41;9.80;;;5.55;;
49235;SDS011;35067;48.134;8.378;2023-04-06T01:21:47;10.57;;;5.25;;
49235;SDS011;35067;48.134;8.378;2023-04-06T01:22:55;11.05;;;5.65;;
49235;SDS011;35067;48.134;8.378;2023-04-06T01:24:01;13.43;;;5.03;;
49235;SDS011;35067;48.134;8.378;2023-04-06T01:25:04;6.90;;;4.70;;
49235;SDS011;35067;48.134;8.378;2023-04-06T01:26:09;8.27;;;5.50;;
49235;SDS011;35067;48.134;8.378;2023-04-06T01:27:14;7.47;;;5.15;;
49235;SDS011;35067;48.134;8.378;2023-04-06T01:28:20;7.15;;;4.65;;
49235;SDS011;35067;48.134;8.378;2023-04-06T01:29:26;5.82;;;4.60;;
49235;SDS011;35067;48.134;8.378;2023-04-06T01:30:32;8.57;;;5.35;;
49235;SDS011;35067;48.134;8.378;2023-04-06T01:31:38;8.57;;;5.15;;
49235;SDS011;35067;48.134;8.378;2023-04-06T01:32:44;7.60;;;4.88;;
49235;SDS011;35067;48.134;8.378;2023-04-06T01:33:50;9.05;;;5.57;;
49235;SDS011;35067;48.134;8.378;2023-04-06T01:34:56;7.22;;;4.88;;
49235;SDS011;35067;48.134;8.378;2023-04-06T01:36:02;8.88;;;5.47;;
49235;SDS011;35067;48.134;8.378;2023-04-06T01:37:04;8.82;;;5.20;;
49235;SDS011;35067;48.134;8.378;2023-04-06T01:38:09;7.95;;;4.60;;
49235;SDS011;35067;48.134;8.378;2023-04-06T01:39:15;10.00;;;4.93;;
49235;SDS011;35067;48.134;8.378;2023-04-06T01:40:21;10.38;;;5.25;;
49235;SDS011;35067;48.134;8.378;2023-04-06T01:41:27;6.75;;;4.93;;
49235;SDS011;35067;48.134;8.378;2023-04-06T01:42:32;8.73;;;5.30;;
49235;SDS011;35067;48.134;8.378;2023-04-06T01:43:38;6.90;;;4.30;;
49235;SDS011;35067;48.134;8.378;2023-04-06T01:44:44;7.53;;;4.60;;
49235;SDS011;35067;48.134;8.378;2023-04-06T01:45:50;7.65;;;5.07;;
49235;SDS011;35067;48.134;8.378;2023-04-06T01:46:56;8.07;;;4.97;;
49235;SDS011;35067;48.134;8.378;2023-04-06T01:48:01;7.95;;;5.35;;
49235;SDS011;35067;48.134;8.378;2023-04-06T01:49:04;8.15;;;5.25;;
49235;SDS011;35067;48.134;8.378;2023-04-06T01:50:09;8.27;;;4.68;;
49235;SDS011;35067;48.134;8.378;2023-04-06T01:51:15;8.82;;;5.20;;
49235;SDS011;35067;48.134;8.378;2023-04-06T01:52:20;9.07;;;5.80;;
49235;SDS011;35067;48.134;8.378;2023-04-06T01:53:26;6.78;;;4.80;;
49235;SDS011;35067;48.134;8.378;2023-04-06T01:54:32;6.93;;;4.82;;
49235;SDS011;35067;48.134;8.378;2023-04-06T01:55:38;8.77;;;5.50;;
49235;SDS011;35067;48.134;8.378;2023-04-06T01:56:43;9.27;;;5.43;;
49235;SDS011;35067;48.134;8.378;2023-04-06T01:57:49;8.00;;;5.47;;
49235;SDS011;35067;48.134;8.378;2023-04-06T01:58:55;8.30;;;4.78;;
49235;SDS011;35067;48.134;8.378;2023-04-06T02:00:01;8.02;;;4.90;;
49235;SDS011;35067;48.134;8.378;2023-04-06T02:01:04;6.90;;;5.03;;
49235;SDS011;35067;48.134;8.378;2023-04-06T02:02:09;8.45;;;4.72;;
49235;SDS011;35067;48.134;8.378;2023-04-06T02:03:14;8.52;;;5.50;;
49235;SDS011;35067;48.134;8.378;2023-04-06T02:04:20;8.27;;;4.55;;
49235;SDS011;35067;48.134;8.378;2023-04-06T02:05:27;6.95;;;5.10;;
49235;SDS011;35067;48.134;8.378;2023-04-06T02:06:35;8.63;;;5.13;;
49235;SDS011;35067;48.134;8.378;2023-04-06T02:07:41;7.40;;;4.85;;
49235;SDS011;35067;48.134;8.378;2023-04-06T02:08:46;9.43;;;5.45;;
49235;SDS011;35067;48.134;8.378;2023-04-06T02:09:53;9.38;;;4.88;;
49235;SDS011;35067;48.134;8.378;2023-04-06T02:11:00;8.80;;;4.57;;
49235;SDS011;35067;48.134;8.378;2023-04-06T02:12:04;7.15;;;4.80;;
49235;SDS011;35067;48.134;8.378;2023-04-06T02:13:09;9.70;;;6.00;;
49235;SDS011;35067;48.134;8.378;2023-04-06T02:14:14;8.45;;;5.18;;
49235;SDS011;35067;48.134;8.378;2023-04-06T02:15:20;9.07;;;5.43;;
49235;SDS011;35067;48.134;8.378;2023-04-06T02:16:26;7.60;;;4.50;;
49235;SDS011;35067;48.134;8.378;2023-04-06T02:17:32;8.30;;;4.90;;
49235;SDS011;35067;48.134;8.378;2023-04-06T02:18:37;8.68;;;5.68;;
49235;SDS011;35067;48.134;8.378;2023-04-06T02:19:43;9.55;;;5.25;;
49235;SDS011;35067;48.134;8.378;2023-04-06T02:20:49;7.90;;;5.63;;
49235;SDS011;35067;48.134;8.378;2023-04-06T02:21:55;11.10;;;5.65;;
49235;SDS011;35067;48.134;8.378;2023-04-06T02:23:01;12.98;;;6.03;;
49235;SDS011;35067;48.134;8.378;2023-04-06T02:24:04;8.60;;;5.40;;
49235;SDS011;35067;48.134;8.378;2023-04-06T02:25:09;8.55;;;4.95;;
49235;SDS011;35067;48.134;8.378;2023-04-06T02:26:15;8.52;;;4.97;;
49235;SDS011;35067;48.134;8.378;2023-04-06T02:27:21;7.85;;;5.32;;
49235;SDS011;35067;48.134;8.378;2023-04-06T02:28:27;8.80;;;5.25;;
49235;SDS011;35067;48.134;8.378;2023-04-06T02:29:32;7.78;;;4.90;;
49235;SDS011;35067;48.134;8.378;2023-04-06T02:30:38;8.45;;;4.93;;
49235;SDS011;35067;48.134;8.378;2023-04-06T02:31:44;8.20;;;5.00;;
49235;SDS011;35067;48.134;8.378;2023-04-06T02:32:50;8.77;;;5.03;;
49235;SDS011;35067;48.134;8.378;2023-04-06T02:33:56;8.82;;;5.00;;
49235;SDS011;35067;48.134;8.378;2023-04-06T02:35:01;8.48;;;5.47;;
49235;SDS011;35067;48.134;8.378;2023-04-06T02:36:04;9.00;;;5.32;;
49235;SDS011;35067;48.134;8.378;2023-04-06T02:37:09;7.22;;;5.00;;
49235;SDS011;35067;48.134;8.378;2023-04-06T02:38:14;8.00;;;5.38;;
49235;SDS011;35067;48.134;8.378;2023-04-06T02:39:20;8.38;;;5.22;;
49235;SDS011;35067;48.134;8.378;2023-04-06T02:40:26;7.18;;;4.95;;
49235;SDS011;35067;48.134;8.378;2023-04-06T02:41:32;8.00;;;5.13;;
49235;SDS011;35067;48.134;8.378;2023-04-06T02:42:37;6.35;;;5.15;;
49235;SDS011;35067;48.134;8.378;2023-04-06T02:43:43;8.50;;;5.20;;
49235;SDS011;35067;48.134;8.378;2023-04-06T02:44:49;7.55;;;4.80;;
49235;SDS011;35067;48.134;8.378;2023-04-06T02:45:55;11.23;;;5.20;;
49235;SDS011;35067;48.134;8.378;2023-04-06T02:47:00;8.88;;;5.18;;
49235;SDS011;35067;48.134;8.378;2023-04-06T02:48:04;12.18;;;5.35;;
49235;SDS011;35067;48.134;8.378;2023-04-06T02:49:09;9.35;;;4.95;;
49235;SDS011;35067;48.134;8.378;2023-04-06T02:50:14;7.85;;;5.00;;
49235;SDS011;35067;48.134;8.378;2023-04-06T02:51:20;9.35;;;6.00;;
49235;SDS011;35067;48.134;8.378;2023-04-06T02:52:26;8.40;;;5.10;;
49235;SDS011;35067;48.134;8.378;2023-04-06T02:53:32;7.97;;;4.93;;
49235;SDS011;35067;48.134;8.378;2023-04-06T02:54:37;9.80;;;5.88;;
49235;SDS011;35067;48.134;8.378;2023-04-06T02:55:43;10.00;;;5.70;;
49235;SDS011;35067;48.134;8.378;2023-04-06T02:56:49;8.77;;;5.00;;
49235;SDS011;35067;48.134;8.378;2023-04-06T02:57:55;9.15;;;5.82;;
49235;SDS011;35067;48.134;8.378;2023-04-06T02:59:01;8.10;;;5.63;;
49235;SDS011;35067;48.134;8.378;2023-04-06T03:00:04;11.63;;;5.28;;
49235;SDS011;35067;48.134;8.378;2023-04-06T03:01:09;9.43;;;5.78;;
49235;SDS011;35067;48.134;8.378;2023-04-06T03:02:15;10.05;;;5.03;;
49235;SDS011;35067;48.134;8.378;2023-04-06T03:03:20;9.40;;;5.50;;
49235;SDS011;35067;48.134;8.378;2023-04-06T03:04:26;7.45;;;5.10;;
49235;SDS011;35067;48.134;8.378;2023-04-06T03:05:32;7.10;;;4.47;;
49235;SDS011;35067;48.134;8.378;2023-04-06T03:06:38;8.20;;;5.05;;
49235;SDS011;35067;48.134;8.378;2023-04-06T03:07:43;8.65;;;5.80;;
49235;SDS011;35067;48.134;8.378;2023-04-06T03:08:49;7.25;;;5.18;;
49235;SDS011;35067;48.134;8.378;2023-04-06T03:09:55;8.23;;;5.53;;
49235;SDS011;35067;48.134;8.378;2023-04-06T03:11:01;9.23;;;5.60;;
49235;SDS011;35067;48.134;8.378;2023-04-06T03:12:04;14.77;;;5.95;;
49235;SDS011;35067;48.134;8.378;2023-04-06T03:13:09;9.57;;;5.63;;
49235;SDS011;35067;48.134;8.378;2023-04-06T03:14:14;9.85;;;5.97;;
49235;SDS011;35067;48.134;8.378;2023-04-06T03:15:22;8.45;;;5.47;;
49235;SDS011;35067;48.134;8.378;2023-04-06T03:16:28;7.70;;;5.15;;
49235;SDS011;35067;48.134;8.378;2023-04-06T03:17:34;7.55;;;5.20;;
49235;SDS011;35067;48.134;8.378;2023-04-06T03:18:40;9.88;;;5.35;;
49235;SDS011;35067;48.134;8.378;2023-04-06T03:19:45;8.73;;;4.95;;
49235;SDS011;35067;48.134;8.378;2023-04-06T03:20:51;9.30;;;5.32;;
49235;SDS011;35067;48.134;8.378;2023-04-06T03:22:00;7.18;;;4.68;;
49235;SDS011;35067;48.134;8.378;2023-04-06T03:23:04;7.18;;;5.05;;
49235;SDS011;35067;48.134;8.378;2023-04-06T03:24:09;9.93;;;5.20;;
49235;SDS011;35067;48.134;8.378;2023-04-06T03:25:14;8.18;;;4.85;;
49235;SDS011;35067;48.134;8.378;2023-04-06T03:26:20;7.65;;;5.00;;
49235;SDS011;35067;48.134;8.378;2023-04-06T03:27:27;8.70;;;5.18;;
49235;SDS011;35067;48.134;8.378;2023-04-06T03:28:33;9.63;;;5.20;;
49235;SDS011;35067;48.134;8.378;2023-04-06T03:29:38;9.45;;;5.30;;
49235;SDS011;35067;48.134;8.378;2023-04-06T03:30:45;9.75;;;6.00;;
49235;SDS011;35067;48.134;8.378;2023-04-06T03:31:51;9.75;;;5.15;;
49235;SDS011;35067;48.134;8.378;2023-04-06T03:32:56;10.25;;;5.70;;
49235;SDS011;35067;48.134;8.378;2023-04-06T03:34:02;8.30;;;5.05;;
49235;SDS011;35067;48.134;8.378;2023-04-06T03:35:04;8.60;;;5.00;;
49235;SDS011;35067;48.134;8.378;2023-04-06T03:36:09;8.75;;;5.60;;
49235;SDS011;35067;48.134;8.378;2023-04-06T03:37:15;7.72;;;5.38;;
49235;SDS011;35067;48.134;8.378;2023-04-06T03:38:20;11.43;;;5.80;;
49235;SDS011;35067;48.134;8.378;2023-04-06T03:39:26;9.43;;;5.97;;
49235;SDS011;35067;48.134;8.378;2023-04-06T03:40:32;10.07;;;6.05;;
49235;SDS011;35067;48.134;8.378;2023-04-06T03:41:37;8.85;;;5.72;;
49235;SDS011;35067;48.134;8.378;2023-04-06T03:42:43;8.32;;;4.95;;
49235;SDS011;35067;48.134;8.378;2023-04-06T03:43:49;7.95;;;5.25;;
49235;SDS011;35067;48.134;8.378;2023-04-06T03:44:55;8.20;;;5.10;;
49235;SDS011;35067;48.134;8.378;2023-04-06T03:46:01;9.80;;;5.85;;
49235;SDS011;35067;48.134;8.378;2023-04-06T03:47:04;9.65;;;5.53;;
49235;SDS011;35067;48.134;8.378;2023-04-06T03:48:09;8.10;;;5.22;;
49235;SDS011;35067;48.134;8.378;2023-04-06T03:49:14;8.52;;;5.63;;
49235;SDS011;35067;48.134;8.378;2023-04-06T03:50:20;9.55;;;5.70;;
49235;SDS011;35067;48.134;8.378;2023-04-06T03:51:27;8.45;;;5.28;;
49235;SDS011;35067;48.134;8.378;2023-04-06T03:52:32;7.63;;;5.68;;
49235;SDS011;35067;48.134;8.378;2023-04-06T03:53:39;9.88;;;5.20;;
49235;SDS011;35067;48.134;8.378;2023-04-06T03:54:45;8.27;;;5.60;;
49235;SDS011;35067;48.134;8.378;2023-04-06T03:55:50;8.65;;;5.47;;
49235;SDS011;35067;48.134;8.378;2023-04-06T03:56:56;8.88;;;6.03;;
49235;SDS011;35067;48.134;8.378;2023-04-06T03:58:02;6.97;;;4.70;;
49235;SDS011;35067;48.134;8.378;2023-04-06T03:59:04;9.73;;;5.18;;
49235;SDS011;35067;48.134;8.378;2023-04-06T04:00:09;7.55;;;5.30;;
49235;SDS011;35067;48.134;8.378;2023-04-06T04:01:16;9.73;;;5.80;;
49235;SDS011;35067;48.134;8.378;2023-04-06T04:02:23;8.70;;;5.50;;
49235;SDS011;35067;48.134;8.378;2023-04-06T04:03:28;9.07;;;5.43;;
49235;SDS011;35067;48.134;8.378;2023-04-06T04:04:34;9.50;;;5.57;;
49235;SDS011;35067;48.134;8.378;2023-04-06T04:05:40;8.85;;;5.35;;
49235;SDS011;35067;48.134;8.378;2023-04-06T04:06:46;8.45;;;4.82;;
49235;SDS011;35067;48.134;8.378;2023-04-06T04:07:52;8.02;;;5.50;;
49235;SDS011;35067;48.134;8.378;2023-04-06T04:08:57;7.05;;;5.10;;
49235;SDS011;35067;48.134;8.378;2023-04-06T04:10:03;10.48;;;5.88;;
49235;SDS011;35067;48.134;8.378;2023-04-06T04:11:09;8.85;;;6.10;;
49235;SDS011;35067;48.134;8.378;2023-04-06T04:12:14;9.63;;;5.70;;
49235;SDS011;35067;48.134;8.378;2023-04-06T04:13:21;6.78;;;4.53;;
49235;SDS011;35067;48.134;8.378;2023-04-06T04:14:27;9.50;;;5.18;;
49235;SDS011;35067;48.134;8.378;2023-04-06T04:15:33;8.13;;;5.35;;
49235;SDS011;35067;48.134;8.378;2023-04-06T04:16:38;9.18;;;5.60;;
49235;SDS011;35067;48.134;8.378;2023-04-06T04:17:44;8.07;;;5.30;;
49235;SDS011;35067;48.134;8.378;2023-04-06T04:18:51;9.23;;;5.18;;
49235;SDS011;35067;48.134;8.378;2023-04-06T04:19:57;8.90;;;5.30;;
49235;SDS011;35067;48.134;8.378;2023-04-06T04:21:03;9.35;;;5.68;;
49235;SDS011;35067;48.134;8.378;2023-04-06T04:22:09;7.93;;;4.68;;
49235;SDS011;35067;48.134;8.378;2023-04-06T04:23:14;7.65;;;5.20;;
49235;SDS011;35067;48.134;8.378;2023-04-06T04:24:20;7.78;;;4.70;;
49235;SDS011;35067;48.134;8.378;2023-04-06T04:25:26;7.78;;;5.05;;
49235;SDS011;35067;48.134;8.378;2023-04-06T04:26:32;8.75;;;4.93;;
49235;SDS011;35067;48.134;8.378;2023-04-06T04:27:37;8.43;;;5.15;;
49235;SDS011;35067;48.134;8.378;2023-04-06T04:28:43;7.57;;;5.07;;
49235;SDS011;35067;48.134;8.378;2023-04-06T04:29:49;8.98;;;5.78;;
49235;SDS011;35067;48.134;8.378;2023-04-06T04:30:55;9.45;;;5.10;;
49235;SDS011;35067;48.134;8.378;2023-04-06T04:32:00;7.40;;;4.47;;
49235;SDS011;35067;48.134;8.378;2023-04-06T04:33:04;8.73;;;6.05;;
49235;SDS011;35067;48.134;8.378;2023-04-06T04:34:09;8.45;;;5.07;;
49235;SDS011;35067;48.134;8.378;2023-04-06T04:35:15;8.85;;;5.68;;
49235;SDS011;35067;48.134;8.378;2023-04-06T04:36:20;7.78;;;5.18;;
49235;SDS011;35067;48.134;8.378;2023-04-06T04:37:26;9.45;;;5.13;;
49235;SDS011;35067;48.134;8.378;2023-04-06T04:38:32;6.78;;;4.50;;
49235;SDS011;35067;48.134;8.378;2023-04-06T04:39:38;9.02;;;5.35;;
49235;SDS011;35067;48.134;8.378;2023-04-06T04:40:43;8.30;;;5.15;;
49235;SDS011;35067;48.134;8.378;2023-04-06T04:41:49;7.28;;;4.72;;
49235;SDS011;35067;48.134;8.378;2023-04-06T04:42:55;8.73;;;5.03;;
49235;SDS011;35067;48.134;8.378;2023-04-06T04:44:00;10.52;;;4.85;;
49235;SDS011;35067;48.134;8.378;2023-04-06T04:45:04;9.25;;;5.78;;
49235;SDS011;35067;48.134;8.378;2023-04-06T04:46:09;7.53;;;4.63;;
49235;SDS011;35067;48.134;8.378;2023-04-06T04:47:15;6.22;;;4.55;;
49235;SDS011;35067;48.134;8.378;2023-04-06T04:48:20;10.57;;;5.43;;
49235;SDS011;35067;48.134;8.378;2023-04-06T04:49:26;8.27;;;4.68;;
49235;SDS011;35067;48.134;8.378;2023-04-06T04:50:32;8.00;;;5.25;;
49235;SDS011;35067;48.134;8.378;2023-04-06T04:51:38;11.43;;;5.72;;
49235;SDS011;35067;48.134;8.378;2023-04-06T04:52:43;8.10;;;4.82;;
49235;SDS011;35067;48.134;8.378;2023-04-06T04:53:49;6.57;;;4.45;;
49235;SDS011;35067;48.134;8.378;2023-04-06T04:54:55;9.48;;;4.78;;
49235;SDS011;35067;48.134;8.378;2023-04-06T04:56:01;6.35;;;4.63;;
49235;SDS011;35067;48.134;8.378;2023-04-06T04:57:04;7.45;;;4.63;;
49235;SDS011;35067;48.134;8.378;2023-04-06T04:58:09;8.65;;;4.65;;
49235;SDS011;35067;48.134;8.378;2023-04-06T04:59:19;9.93;;;5.43;;
49235;SDS011;35067;48.134;8.378;2023-04-06T05:00:25;9.27;;;5.07;;
49235;SDS011;35067;48.134;8.378;2023-04-06T05:01:30;8.65;;;4.82;;
49235;SDS011;35067;48.134;8.378;2023-04-06T05:02:36;8.38;;;4.15;;
49235;SDS011;35067;48.134;8.378;2023-04-06T05:03:42;6.90;;;4.63;;
49235;SDS011;35067;48.134;8.378;2023-04-06T05:04:47;7.90;;;4.57;;
49235;SDS011;35067;48.134;8.378;2023-04-06T05:05:53;8.13;;;4.50;;
49235;SDS011;35067;48.134;8.378;2023-04-06T05:07:06;7.03;;;4.18;;
49235;SDS011;35067;48.134;8.378;2023-04-06T05:08:09;8.35;;;4.18;;
49235;SDS011;35067;48.134;8.378;2023-04-06T05:09:15;5.43;;;4.07;;
49235;SDS011;35067;48.134;8.378;2023-04-06T05:10:22;7.22;;;4.22;;
49235;SDS011;35067;48.134;8.378;2023-04-06T05:11:28;7.68;;;4.60;;
49235;SDS011;35067;48.134;8.378;2023-04-06T05:12:34;6.47;;;4.35;;
49235;SDS011;35067;48.134;8.378;2023-04-06T05:13:40;6.28;;;4.10;;
49235;SDS011;35067;48.134;8.378;2023-04-06T05:14:46;7.03;;;4.95;;
49235;SDS011;35067;48.134;8.378;2023-04-06T05:15:51;8.43;;;4.20;;
49235;SDS011;35067;48.134;8.378;2023-04-06T05:16:57;6.70;;;3.88;;
49235;SDS011;35067;48.134;8.378;2023-04-06T05:18:04;8.02;;;4.25;;
49235;SDS011;35067;48.134;8.378;2023-04-06T05:19:09;7.18;;;4.20;;
49235;SDS011;35067;48.134;8.378;2023-04-06T05:20:16;6.95;;;3.88;;
49235;SDS011;35067;48.134;8.378;2023-04-06T05:21:22;7.20;;;4.22;;
49235;SDS011;35067;48.134;8.378;2023-04-06T05:22:28;8.25;;;4.40;;
49235;SDS011;35067;48.134;8.378;2023-04-06T05:23:33;7.72;;;4.55;;
49235;SDS011;35067;48.134;8.378;2023-04-06T05:24:39;6.38;;;3.92;;
49235;SDS011;35067;48.134;8.378;2023-04-06T05:25:45;6.82;;;4.47;;
49235;SDS011;35067;48.134;8.378;2023-04-06T05:26:51;5.72;;;3.72;;
49235;SDS011;35067;48.134;8.378;2023-04-06T05:27:56;6.50;;;4.35;;
49235;SDS011;35067;48.134;8.378;2023-04-06T05:29:02;8.32;;;4.10;;
49235;SDS011;35067;48.134;8.378;2023-04-06T05:30:04;7.53;;;4.03;;
49235;SDS011;35067;48.134;8.378;2023-04-06T05:31:09;5.80;;;4.40;;
49235;SDS011;35067;48.134;8.378;2023-04-06T05:32:15;6.68;;;4.18;;
49235;SDS011;35067;48.134;8.378;2023-04-06T05:33:20;7.18;;;4.10;;
49235;SDS011;35067;48.134;8.378;2023-04-06T05:34:26;6.88;;;4.32;;
49235;SDS011;35067;48.134;8.378;2023-04-06T05:35:32;5.47;;;4.18;;
49235;SDS011;35067;48.134;8.378;2023-04-06T05:36:38;7.55;;;3.78;;
49235;SDS011;35067;48.134;8.378;2023-04-06T05:37:45;5.43;;;3.90;;
49235;SDS011;35067;48.134;8.378;2023-04-06T05:38:51;7.28;;;4.30;;
49235;SDS011;35067;48.134;8.378;2023-04-06T05:39:57;7.22;;;4.05;;
49235;SDS011;35067;48.134;8.378;2023-04-06T05:41:03;6.85;;;3.88;;
49235;SDS011;35067;48.134;8.378;2023-04-06T05:42:08;9.23;;;4.53;;
49235;SDS011;35067;48.134;8.378;2023-04-06T05:43:09;6.00;;;4.07;;
49235;SDS011;35067;48.134;8.378;2023-04-06T05:44:14;8.52;;;3.90;;
49235;SDS011;35067;48.134;8.378;2023-04-06T05:45:20;5.85;;;3.53;;
49235;SDS011;35067;48.134;8.378;2023-04-06T05:46:26;7.90;;;3.75;;
49235;SDS011;35067;48.134;8.378;2023-04-06T05:47:32;5.28;;;3.42;;
49235;SDS011;35067;48.134;8.378;2023-04-06T05:48:37;5.70;;;3.85;;
49235;SDS011;35067;48.134;8.378;2023-04-06T05:49:43;5.85;;;4.05;;
49235;SDS011;35067;48.134;8.378;2023-04-06T05:50:49;5.18;;;4.03;;
49235;SDS011;35067;48.134;8.378;2023-04-06T05:51:55;6.68;;;3.70;;
49235;SDS011;35067;48.134;8.378;2023-04-06T05:53:01;5.00;;;3.30;;
49235;SDS011;35067;48.134;8.378;2023-04-06T05:54:04;5.75;;;4.05;;
49235;SDS011;35067;48.134;8.378;2023-04-06T05:55:09;8.52;;;3.58;;
49235;SDS011;35067;48.134;8.378;2023-04-06T05:56:16;4.97;;;3.42;;
49235;SDS011;35067;48.134;8.378;2023-04-06T05:57:22;5.50;;;3.50;;
49235;SDS011;35067;48.134;8.378;2023-04-06T05:58:28;6.22;;;3.78;;
49235;SDS011;35067;48.134;8.378;2023-04-06T05:59:34;5.72;;;3.78;;
49235;SDS011;35067;48.134;8.378;2023-04-06T06:00:40;5.65;;;3.55;;
49235;SDS011;35067;48.134;8.378;2023-04-06T06:01:47;5.45;;;3.30;;
49235;SDS011;35067;48.134;8.378;2023-04-06T06:02:53;5.10;;;3.35;;
49235;SDS011;35067;48.134;8.378;2023-04-06T06:03:59;6.78;;;3.67;;
49235;SDS011;35067;48.134;8.378;2023-04-06T06:05:04;6.22;;;3.33;;
49235;SDS011;35067;48.134;8.378;2023-04-06T06:06:09;5.38;;;2.97;;
49235;SDS011;35067;48.134;8.378;2023-04-06T06:07:15;5.13;;;3.55;;
49235;SDS011;35067;48.134;8.378;2023-04-06T06:08:22;5.38;;;3.70;;
49235;SDS011;35067;48.134;8.378;2023-04-06T06:09:27;5.82;;;3.42;;
49235;SDS011;35067;48.134;8.378;2023-04-06T06:10:33;7.88;;;4.05;;
49235;SDS011;35067;48.134;8.378;2023-04-06T06:11:39;7.45;;;3.65;;
49235;SDS011;35067;48.134;8.378;2023-04-06T06:12:45;5.55;;;3.38;;
49235;SDS011;35067;48.134;8.378;2023-04-06T06:13:51;5.53;;;3.00;;
49235;SDS011;35067;48.134;8.378;2023-04-06T06:14:57;5.22;;;3.20;;
49235;SDS011;35067;48.134;8.378;2023-04-06T06:16:03;4.85;;;3.42;;
49235;SDS011;35067;48.134;8.378;2023-04-06T06:17:09;6.35;;;3.58;;
49235;SDS011;35067;48.134;8.378;2023-04-06T06:18:15;5.32;;;3.55;;
49235;SDS011;35067;48.134;8.378;2023-04-06T06:19:21;4.68;;;3.30;;
49235;SDS011;35067;48.134;8.378;2023-04-06T06:20:26;5.10;;;3.67;;
49235;SDS011;35067;48.134;8.378;2023-04-06T06:21:32;5.35;;;3.35;;
49235;SDS011;35067;48.134;8.378;2023-04-06T06:22:38;4.95;;;3.42;;
49235;SDS011;35067;48.134;8.378;2023-04-06T06:23:45;4.32;;;3.30;;
49235;SDS011;35067;48.134;8.378;2023-04-06T06:24:53;3.88;;;2.90;;
49235;SDS011;35067;48.134;8.378;2023-04-06T06:25:58;7.05;;;3.22;;
49235;SDS011;35067;48.134;8.378;2023-04-06T06:27:04;6.55;;;3.58;;
49235;SDS011;35067;48.134;8.378;2023-04-06T06:28:09;5.03;;;3.13;;
49235;SDS011;35067;48.134;8.378;2023-04-06T06:29:14;5.80;;;3.55;;
49235;SDS011;35067;48.134;8.378;2023-04-06T06:30:20;5.53;;;3.78;;
49235;SDS011;35067;48.134;8.378;2023-04-06T06:31:26;6.10;;;3.65;;
49235;SDS011;35067;48.134;8.378;2023-04-06T06:32:32;5.68;;;3.35;;
49235;SDS011;35067;48.134;8.378;2023-04-06T06:33:37;6.60;;;4.03;;
49235;SDS011;35067;48.134;8.378;2023-04-06T06:34:43;6.18;;;3.28;;